KSOW/SOW METAR and TAF weather

Enter ICAO airport designator
Station Type Date Time Source
KSOW METAR 2021/02/24 17:55 UTC NOAA

KSOW 241755Z AUTO 23015G23KT 10SM CLR 11/M10 A3014 RMK AO2 LTG DSNT E AND W


Station Type Date Time Source
KSOW Decoded METAR 2021/02/24 17:55 UTC NOAA

Show Low, Show Low Regional Airport, AZ, United States (KSOW) 34-15-55N 110-00-20W
Feb 24, 2021 - 12:55 PM EST / 2021.02.24 1755 UTC
Wind: from the SW (230 degrees) at 17 MPH (15 KT) gusting to 26 MPH (23 KT):0
Visibility: 10 mile(s):0
Sky conditions: clear
Weather: Lightning observed
Temperature: 51 F (11 C)
Dew Point: 14 F (-10 C)
Relative Humidity: 21%
Pressure (altimeter): 30.14 in. Hg (1020 hPa)
ob: KSOW 241755Z AUTO 23015G23KT 10SM CLR 11/M10 A3014 RMK AO2 LTG DSNT E AND W
cycle: 18

Station Type Date Time Source
KSOW TAF UTC NOAA

Error!

Example: see airport list